Framingham, Massachusetts
Current Conditions -  °F | °C
As of 3:53 PM on Tuesday 21 Oct 2014 (Local Time) from KOWD Reporting Station
Overcast Overcast  
Wind Chill: 59°   Ceiling: 6500
Heat Index: 59°   Visibility: 10mi
Dew Point: 57°   Wind: 5mph
Humidity: 93%   Direction: 80°E
Pressure: 29.9"   Gusts: NA
Location:  42.28°N, 71.42°W
Report Text: KOWD 211953Z 08004KT 10SM SCT049 OVC065 15/14 A2990 RMK AO2 RAE53 SLP123 P0001 T01500139
Loading
Personal Weather Stations






























Interactive Weather Map
Tropical Storm Tracking
New forecast layout! Learn more

10-Day Weather Forecast

Advertisements
Track Severe Weather on mobile